Time;durP1;ratioP1;P1;durP2;ratioP2;P2;SDS_P1;SDS_P2;PMS_P1;PMS_P2;Temp;Humidity;BMP_temperature;BMP_pressure;BME280_temperature;BME280_humidity;BME280_pressure;Samples;Min_cycle;Max_cycle;Signal;HPM_P1;HPM_P2
2022/08/31 00:05:47;;;;;;;;;;;;;;;23.79;69.18;153637.73;1702156;83;21146;-70
2022/08/31 00:08:14;;;;;;;;;;;;;;;23.80;69.28;153640.34;1704424;82;20192;-70
2022/08/31 00:10:44;;;;;;;;;;;;;;;23.80;69.30;153640.34;1704381;84;20172;-71
2022/08/31 00:13:10;;;;;;;;;;;;;;;23.80;69.46;153639.06;1689283;83;21216;-70
2022/08/31 00:15:36;;;;;;;;;;;;;;;23.84;69.58;153649.53;1639156;87;20223;-73
2022/08/31 00:18:04;;;;;;;;;;;;;;;23.98;69.31;153686.16;1674585;85;20493;-71
2022/08/31 00:20:32;;;;;;;;;;;;;;;24.01;68.89;153694.09;1639079;86;20195;-71
2022/08/31 00:22:58;;;;;;;;;;;;;;;23.94;69.18;153675.69;1675284;85;20449;-70
2022/08/31 00:25:25;;;;;;;;;;;;;;;23.86;69.41;153654.75;1639194;86;20240;-70
2022/08/31 00:27:54;;;;;;;;;;;;;;;23.83;69.70;153646.91;1674716;85;20173;-70
2022/08/31 00:30:22;;;;;;;;;;;;;;;23.80;69.78;153639.06;1638978;86;21320;-70
2022/08/31 00:32:49;;;;;;;;;;;;;;;23.80;69.82;153640.34;1674491;84;20426;-71
2022/08/31 00:35:16;;;;;;;;;;;;;;;23.84;69.74;153649.53;1639210;87;20476;-71
2022/08/31 00:37:42;;;;;;;;;;;;;;;23.83;69.71;153646.91;1674518;85;20213;-71
2022/08/31 00:40:10;;;;;;;;;;;;;;;23.92;69.57;153670.45;1678983;85;20183;-69
2022/08/31 00:42:37;;;;;;;;;;;;;;;23.99;69.16;153688.81;1650352;85;21253;-69
2022/08/31 00:45:05;;;;;;;;;;;;;;;24.02;68.95;153696.72;1646287;85;20195;-71
2022/08/31 00:47:32;;;;;;;;;;;;;;;24.04;68.73;153700.61;1681713;85;20135;-71
2022/08/31 00:49:59;;;;;;;;;;;;;;;23.97;68.60;153683.53;1679896;84;20614;-70
2022/08/31 00:52:29;;;;;;;;;;;;;;;23.89;68.76;153662.61;1680484;84;20193;-71
2022/08/31 00:54:59;;;;;;;;;;;;;;;23.83;68.95;153646.91;1681090;85;21245;-71
2022/08/31 00:57:29;;;;;;;;;;;;;;;23.84;68.95;153649.53;1680544;85;20649;-71
2022/08/31 00:59:56;;;;;;;;;;;;;;;23.87;68.80;153658.70;1680406;85;20162;-71
2022/08/31 01:02:23;;;;;;;;;;;;;;;23.93;68.62;153673.08;1680444;85;20168;-71
2022/08/31 01:04:50;;;;;;;;;;;;;;;24.03;68.19;153698.00;1680558;85;20168;-71
2022/08/31 01:07:17;;;;;;;;;;;;;;;24.06;68.14;153704.56;1709068;84;22155;-71
2022/08/31 01:09:44;;;;;;;;;;;;;;;24.08;67.99;153711.08;1704576;84;20190;-71
2022/08/31 01:12:11;;;;;;;;;;;;;;;24.11;67.88;153717.64;1680825;84;20193;-71
2022/08/31 01:14:39;;;;;;;;;;;;;;;24.12;67.69;153721.59;1708937;84;20727;-71
2022/08/31 01:17:07;;;;;;;;;;;;;;;24.07;67.65;153707.19;1709379;84;20213;-70
2022/08/31 01:19:37;;;;;;;;;;;;;;;23.94;67.97;153675.69;1708480;84;21255;-71
2022/08/31 01:22:17;;;;;;;;;;;;;;;23.84;68.46;153649.53;1708694;84;21115;-71
2022/08/31 01:24:44;;;;;;;;;;;;;;;23.81;68.66;153641.69;1708424;84;20153;-70
2022/08/31 01:27:11;;;;;;;;;;;;;;;23.72;69.03;153619.42;1709112;84;20202;-71
2022/08/31 01:29:38;;;;;;;;;;;;;;;23.74;69.12;153625.94;1709017;84;20183;-69
2022/08/31 01:32:05;;;;;;;;;;;;;;;23.80;68.97;153640.34;1708831;84;21154;-63
2022/08/31 01:34:32;;;;;;;;;;;;;;;23.81;69.03;153641.69;1708911;84;20423;-62
2022/08/31 01:37:00;;;;;;;;;;;;;;;23.83;69.07;153646.91;1709309;84;20174;-62
2022/08/31 01:39:27;;;;;;;;;;;;;;;23.84;69.13;153650.81;1709069;84;20600;-62
2022/08/31 01:41:54;;;;;;;;;;;;;;;23.80;69.00;153639.06;1709104;84;20210;-63
2022/08/31 01:44:23;;;;;;;;;;;;;;;23.66;69.33;153605.02;1709218;84;39069;-62
2022/08/31 01:46:50;;;;;;;;;;;;;;;23.53;69.62;153570.95;1708840;84;20189;-62
2022/08/31 01:49:17;;;;;;;;;;;;;;;23.41;69.99;153542.19;1719094;82;20187;-61
2022/08/31 01:51:44;;;;;;;;;;;;;;;23.36;70.30;153529.11;1741532;82;20219;-71
2022/08/31 01:54:11;;;;;;;;;;;;;;;23.36;70.42;153529.11;1713475;82;20151;-70
2022/08/31 01:56:41;;;;;;;;;;;;;;;23.36;70.33;153529.11;1741348;82;21294;-71
2022/08/31 01:59:10;;;;;;;;;;;;;;;23.38;70.04;153534.34;1741528;82;20737;-70
2022/08/31 02:01:57;;;;;;;;;;;;;;;23.46;69.90;153555.27;1740852;82;20464;-70
2022/08/31 02:04:25;;;;;;;;;;;;;;;23.52;69.61;153569.67;1741027;82;20621;-70
2022/08/31 02:06:54;;;;;;;;;;;;;;;23.61;69.18;153591.94;1713970;82;20239;-71
2022/08/31 02:09:22;;;;;;;;;;;;;;;23.66;68.82;153605.02;1708661;84;22231;-70
2022/08/31 02:11:49;;;;;;;;;;;;;;;23.66;68.18;153605.02;1708895;84;20201;-62
2022/08/31 02:14:17;;;;;;;;;;;;;;;23.56;68.22;153578.86;1679861;84;20430;-62
2022/08/31 02:16:45;;;;;;;;;;;;;;;23.43;68.58;153547.42;1709022;84;20181;-61
2022/08/31 02:19:12;;;;;;;;;;;;;;;23.34;68.89;153523.88;1709061;84;20640;-70
2022/08/31 02:21:38;;;;;;;;;;;;;;;23.32;68.95;153518.61;1708915;84;21139;-71
2022/08/31 02:24:07;;;;;;;;;;;;;;;23.30;68.59;153514.72;1709127;84;20190;-71
2022/08/31 02:26:34;;;;;;;;;;;;;;;23.31;68.30;153516.00;1709045;84;20946;-62
2022/08/31 02:29:06;;;;;;;;;;;;;;;23.34;68.12;153523.88;1709430;84;20190;-62
2022/08/31 02:31:33;;;;;;;;;;;;;;;23.35;67.88;153526.50;1709216;84;20182;-62
2022/08/31 02:34:00;;;;;;;;;;;;;;;23.44;67.63;153548.75;1708947;84;21254;-62
2022/08/31 02:36:27;;;;;;;;;;;;;;;23.49;66.74;153561.83;1708715;84;20170;-62
2022/08/31 02:38:53;;;;;;;;;;;;;;;23.49;66.49;153561.83;1705625;84;20198;-62
2022/08/31 02:41:20;;;;;;;;;;;;;;;23.48;66.52;153557.88;1703361;84;20178;-63
2022/08/31 02:43:47;;;;;;;;;;;;;;;23.57;66.36;153582.75;1703287;84;20202;-71
2022/08/31 02:46:14;;;;;;;;;;;;;;;23.64;65.74;153599.78;1703364;84;21234;-71
2022/08/31 02:48:43;;;;;;;;;;;;;;;23.64;65.52;153598.44;1705597;82;20182;-71
2022/08/31 02:51:11;;;;;;;;;;;;;;;23.56;65.36;153578.86;1738909;82;20252;-71
2022/08/31 02:53:39;;;;;;;;;;;;;;;23.45;65.24;153552.66;1738510;82;20196;-70
2022/08/31 02:56:06;;;;;;;;;;;;;;;23.41;65.38;153540.86;1721465;82;20477;-71
2022/08/31 02:58:35;;;;;;;;;;;;;;;23.47;65.02;153556.59;1704477;84;21253;-70
2022/08/31 03:01:01;;;;;;;;;;;;;;;23.58;64.35;153584.09;1721384;83;20914;-70
2022/08/31 03:03:30;;;;;;;;;;;;;;;23.64;64.01;153598.44;1704312;84;20206;-62
2022/08/31 03:05:57;;;;;;;;;;;;;;;23.81;63.55;153641.69;1703425;83;20188;-63
2022/08/31 03:08:24;;;;;;;;;;;;;;;23.95;62.68;153677.03;1638986;86;20218;-62
2022/08/31 03:10:52;;;;;;;;;;;;;;;24.03;62.01;153699.33;1686393;84;21882;-62
2022/08/31 03:13:19;;;;;;;;;;;;;;;23.96;61.84;153679.64;1646311;87;20209;-72
2022/08/31 03:15:46;;;;;;;;;;;;;;;23.84;61.80;153649.53;1669391;86;20490;-63
2022/08/31 03:18:15;;;;;;;;;;;;;;;23.66;61.94;153605.02;1673734;85;20178;-62
2022/08/31 03:20:41;;;;;;;;;;;;;;;23.57;62.13;153581.47;1673985;85;20211;-71
2022/08/31 03:23:08;;;;;;;;;;;;;;;23.60;62.04;153589.31;1673918;85;20800;-71
2022/08/31 03:25:35;;;;;;;;;;;;;;;23.63;61.62;153595.83;1673883;85;20199;-71
2022/08/31 03:28:02;;;;;;;;;;;;;;;23.67;61.39;153607.62;1674128;85;20210;-72
2022/08/31 03:30:31;;;;;;;;;;;;;;;23.71;61.01;153618.09;1674194;85;20162;-70
2022/08/31 03:33:00;;;;;;;;;;;;;;;23.73;60.73;153623.31;1672952;85;20593;-63
2022/08/31 03:35:27;;;;;;;;;;;;;;;23.75;60.50;153628.55;1674111;85;21294;-63
2022/08/31 03:37:53;;;;;;;;;;;;;;;23.85;60.21;153652.14;1673954;85;20481;-62
2022/08/31 03:40:20;;;;;;;;;;;;;;;23.92;60.07;153670.45;1677190;85;20170;-62
2022/08/31 03:42:47;;;;;;;;;;;;;;;24.02;59.81;153696.72;1677236;85;20210;-62
2022/08/31 03:45:15;;;;;;;;;;;;;;;24.09;59.32;153713.69;1677675;85;20110;-62
2022/08/31 03:47:42;;;;;;;;;;;;;;;24.08;59.13;153709.80;1677176;85;21178;-62
2022/08/31 03:50:10;;;;;;;;;;;;;;;24.02;58.84;153696.72;1678735;85;20478;-63
2022/08/31 03:52:39;;;;;;;;;;;;;;;23.98;58.84;153684.88;1677130;85;20483;-62
2022/08/31 03:55:10;;;;;;;;;;;;;;;24.02;58.87;153696.72;1678810;84;20182;-62
2022/08/31 03:57:39;;;;;;;;;;;;;;;24.16;58.42;153730.72;1678985;84;20214;-62
2022/08/31 04:00:07;;;;;;;;;;;;;;;24.31;57.78;153770.03;1678594;85;21245;-63
2022/08/31 04:02:40;;;;;;;;;;;;;;;24.47;57.32;153809.33;1679026;84;20426;-63
2022/08/31 04:05:23;;;;;;;;;;;;;;;24.61;56.60;153845.95;1679129;84;20591;-63
2022/08/31 04:08:10;;;;;;;;;;;;;;;24.71;56.44;153869.56;1664092;85;20184;-72
2022/08/31 04:10:46;;;;;;;;;;;;;;;24.79;55.93;153890.56;1673655;84;20197;-71
2022/08/31 04:13:31;;;;;;;;;;;;;;;24.76;55.64;153882.70;1712402;83;21039;-72
2022/08/31 04:16:10;;;;;;;;;;;;;;;24.68;55.56;153861.72;1716103;83;20226;-71
2022/08/31 04:18:56;;;;;;;;;;;;;;;24.73;55.54;153874.80;1720083;83;20225;-71
2022/08/31 04:21:24;;;;;;;;;;;;;;;24.78;55.63;153887.94;1720031;83;20200;-71
2022/08/31 04:23:52;;;;;;;;;;;;;;;24.83;55.44;153901.03;1719875;83;20236;-62
2022/08/31 04:26:24;;;;;;;;;;;;;;;24.82;55.47;153898.41;1720418;83;21145;-63
2022/08/31 04:28:51;;;;;;;;;;;;;;;24.83;55.52;153899.73;1720102;83;20570;-63
2022/08/31 04:31:18;;;;;;;;;;;;;;;24.92;55.58;153922.02;1720268;83;20196;-62
2022/08/31 04:33:45;;;;;;;;;;;;;;;25.08;54.89;153962.61;1719750;83;20175;-62
2022/08/31 04:36:14;;;;;;;;;;;;;;;25.06;54.52;153958.66;1719952;83;20192;-62
2022/08/31 04:38:44;;;;;;;;;;;;;;;24.94;54.71;153927.25;1716015;83;21186;-62
2022/08/31 04:41:12;;;;;;;;;;;;;;;24.84;55.01;153903.64;1687381;85;20151;-62
2022/08/31 04:43:39;;;;;;;;;;;;;;;24.85;55.19;153906.25;1667539;86;20192;-62
2022/08/31 04:46:07;;;;;;;;;;;;;;;24.87;55.23;153911.53;1676929;84;20320;-63
2022/08/31 04:48:34;;;;;;;;;;;;;;;24.98;55.15;153937.72;1704688;82;20181;-71
2022/08/31 04:51:10;;;;;;;;;;;;;;;25.03;55.02;153952.14;1738685;82;23127;-70
2022/08/31 04:53:37;;;;;;;;;;;;;;;25.05;54.80;153956.03;1738427;82;20447;-73
2022/08/31 04:56:06;;;;;;;;;;;;;;;25.12;54.75;153973.08;1739119;82;20175;-71
2022/08/31 04:58:33;;;;;;;;;;;;;;;25.22;54.56;153997.97;1738983;82;20187;-71
2022/08/31 05:00:59;;;;;;;;;;;;;;;25.23;54.62;154001.94;1739070;82;20199;-71
2022/08/31 05:03:44;;;;;;;;;;;;;;;25.25;54.83;154005.83;1738667;82;21795;-62
2022/08/31 05:06:16;;;;;;;;;;;;;;;25.41;54.74;154047.77;1700127;83;20145;-62
2022/08/31 05:08:43;;;;;;;;;;;;;;;25.57;54.42;154087.14;1638765;87;20218;-61
2022/08/31 05:11:11;;;;;;;;;;;;;;;25.74;53.58;154130.38;1687048;85;20173;-62
2022/08/31 05:13:39;;;;;;;;;;;;;;;25.89;53.46;154168.37;1657474;86;20514;-62
2022/08/31 05:16:06;;;;;;;;;;;;;;;26.06;52.85;154210.33;1686671;85;21322;-70
2022/08/31 05:18:39;;;;;;;;;;;;;;;26.15;52.52;154233.91;1639227;87;20203;-73
2022/08/31 05:21:27;;;;;;;;;;;;;;;26.24;52.44;154256.25;1687121;83;20177;-62
2022/08/31 05:23:48;;;;;;;;;;;;;;;26.26;52.23;154261.48;1638180;87;20230;-62
2022/08/31 05:26:20;;;;;;;;;;;;;;;26.26;52.06;154262.81;1686458;83;20197;-62
2022/08/31 05:28:47;;;;;;;;;;;;;;;26.27;52.15;154265.44;1657932;86;21092;-70
2022/08/31 05:31:13;;;;;;;;;;;;;;;26.29;51.94;154269.34;1686736;83;20166;-70
2022/08/31 05:33:42;;;;;;;;;;;;;;;26.30;52.14;154271.97;1667604;84;20185;-70
2022/08/31 05:36:10;;;;;;;;;;;;;;;26.51;52.10;154324.41;1668240;86;20532;-68
2022/08/31 05:38:37;;;;;;;;;;;;;;;26.81;51.90;154401.77;1667744;84;20209;-72
2022/08/31 05:41:05;;;;;;;;;;;;;;;27.37;50.98;154542.16;1667338;86;21252;-72
2022/08/31 05:43:32;;;;;;;;;;;;;;;27.97;49.58;154694.41;1667405;84;20550;-72
2022/08/31 05:45:59;;;;;;;;;;;;;;;28.33;48.54;154786.34;1667295;84;20220;-71
2022/08/31 05:48:26;;;;;;;;;;;;;;;28.70;47.72;154879.52;1667448;86;20208;-71
2022/08/31 05:50:53;;;;;;;;;;;;;;;29.03;47.01;154963.56;1702636;84;20182;-71
2022/08/31 05:53:20;;;;;;;;;;;;;;;29.30;45.86;155031.88;1688544;84;21228;-63
2022/08/31 05:55:47;;;;;;;;;;;;;;;29.37;45.44;155050.25;1686395;83;20171;-63
2022/08/31 05:58:14;;;;;;;;;;;;;;;29.46;45.13;155072.63;1643365;86;20187;-63
2022/08/31 06:00:41;;;;;;;;;;;;;;;29.39;44.79;155055.50;1702771;84;20185;-62
2022/08/31 06:03:12;;;;;;;;;;;;;;;29.35;44.90;155045.00;1700361;82;20214;-62
2022/08/31 06:05:39;;;;;;;;;;;;;;;29.35;45.06;155045.00;1703128;83;21252;-63
2022/08/31 06:08:06;;;;;;;;;;;;;;;29.60;44.89;155108.08;1700913;83;20229;-61
2022/08/31 06:10:33;;;;;;;;;;;;;;;29.84;44.41;155168.48;1672626;84;20221;-62
2022/08/31 06:13:03;;;;;;;;;;;;;;;30.08;44.03;155228.95;1707602;82;20178;-62
2022/08/31 06:15:30;;;;;;;;;;;;;;;30.30;43.63;155285.47;1707008;82;20168;-62
2022/08/31 06:17:57;;;;;;;;;;;;;;;30.48;43.27;155330.09;1702552;82;21141;-62
2022/08/31 06:20:25;;;;;;;;;;;;;;;30.62;42.67;155365.63;1705414;82;20186;-61
2022/08/31 06:22:51;;;;;;;;;;;;;;;30.51;42.56;155339.31;1702486;82;20181;-61
2022/08/31 06:25:22;;;;;;;;;;;;;;;30.31;43.38;155288.09;1698044;83;20629;-62
2022/08/31 06:27:49;;;;;;;;;;;;;;;30.40;42.96;155310.44;1698885;83;20136;-62
2022/08/31 06:30:18;;;;;;;;;;;;;;;30.35;42.80;155297.25;1704577;82;21096;-61
2022/08/31 06:32:45;;;;;;;;;;;;;;;30.39;42.94;155307.75;1715606;82;20337;-64
2022/08/31 06:35:12;;;;;;;;;;;;;;;30.53;42.64;155344.56;1710802;82;20210;-62
2022/08/31 06:37:44;;;;;;;;;;;;;;;30.58;42.58;155356.41;1720837;81;20601;-62
2022/08/31 06:40:15;;;;;;;;;;;;;;;30.50;42.87;155335.34;1699263;82;20653;-62
2022/08/31 06:42:56;;;;;;;;;;;;;;;30.41;42.82;155313.06;1689008;83;21107;-62
2022/08/31 06:45:34;;;;;;;;;;;;;;;30.45;42.62;155323.56;1677514;83;20153;-61
2022/08/31 06:48:19;;;;;;;;;;;;;;;30.47;42.59;155327.47;1693255;84;20179;-62
2022/08/31 06:50:56;;;;;;;;;;;;;;;30.51;42.53;155338.03;1697286;83;20854;-62
2022/08/31 06:53:22;;;;;;;;;;;;;;;30.66;42.62;155376.17;1700898;83;20223;-62
2022/08/31 06:55:51;;;;;;;;;;;;;;;30.77;42.08;155403.77;1675348;84;21260;-60
2022/08/31 06:58:36;;;;;;;;;;;;;;;30.70;41.92;155386.67;1691603;84;20364;-63
2022/08/31 07:01:10;;;;;;;;;;;;;;;30.51;41.76;155338.03;1695496;83;20227;-63
2022/08/31 07:03:48;;;;;;;;;;;;;;;30.25;42.33;155273.63;1694319;82;20491;-61
2022/08/31 07:06:17;;;;;;;;;;;;;;;30.08;42.61;155230.30;1695921;83;20174;-62
2022/08/31 07:08:46;;;;;;;;;;;;;;;29.98;42.34;155205.28;1697865;83;21303;-61
2022/08/31 07:11:15;;;;;;;;;;;;;;;29.86;42.96;155173.73;1696632;83;20472;-61
2022/08/31 07:13:42;;;;;;;;;;;;;;;29.94;43.44;155194.73;1701058;83;20219;-62
2022/08/31 07:16:11;;;;;;;;;;;;;;;29.99;42.90;155207.91;1700021;83;20471;-62
2022/08/31 07:18:38;;;;;;;;;;;;;;;29.90;43.08;155184.23;1696551;83;20186;-62
2022/08/31 07:21:11;;;;;;;;;;;;;;;29.78;43.31;155154.03;1696863;82;21202;-62
2022/08/31 07:23:37;;;;;;;;;;;;;;;29.80;43.45;155159.28;1693565;84;20411;-61
2022/08/31 07:26:08;;;;;;;;;;;;;;;29.94;42.75;155193.44;1690889;83;20185;-63
2022/08/31 07:28:37;;;;;;;;;;;;;;;29.95;43.56;155196.06;1694746;83;20190;-62
2022/08/31 07:31:04;;;;;;;;;;;;;;;30.12;43.87;155239.45;1696689;83;21093;-62
2022/08/31 07:33:38;;;;;;;;;;;;;;;30.25;43.72;155273.63;1694905;83;21251;-62
2022/08/31 07:36:06;;;;;;;;;;;;;;;30.41;43.49;155314.34;1696111;83;20500;-61
2022/08/31 07:44:07;;;;;;;;;;;;;;;30.89;43.18;155434.00;1697345;83;20214;-62
2022/08/31 07:46:34;;;;;;;;;;;;;;;30.97;43.03;155455.00;1694342;83;21276;-63
2022/08/31 07:49:02;;;;;;;;;;;;;;;31.10;42.92;155489.19;1697209;83;20384;-62
2022/08/31 07:51:36;;;;;;;;;;;;;;;31.22;42.48;155518.13;1694614;83;20185;-62
2022/08/31 07:54:07;;;;;;;;;;;;;;;31.13;42.29;155497.06;1669532;84;20503;-62
2022/08/31 07:56:42;;;;;;;;;;;;;;;31.03;42.74;155470.75;1694673;83;20230;-62
2022/08/31 07:59:13;;;;;;;;;;;;;;;31.06;42.39;155478.69;1698706;83;21251;-62
2022/08/31 08:01:42;;;;;;;;;;;;;;;31.12;42.05;155494.44;1695525;83;20451;-62
2022/08/31 08:04:12;;;;;;;;;;;;;;;31.15;41.54;155502.33;1703580;83;20419;-62
2022/08/31 08:06:59;;;;;;;;;;;;;;;31.08;41.63;155483.94;1699960;83;20940;-65
2022/08/31 08:09:41;;;;;;;;;;;;;;;30.95;42.22;155449.75;1683853;83;20203;-61
2022/08/31 08:12:10;;;;;;;;;;;;;;;30.86;42.49;155428.73;1699148;83;22166;-61
2022/08/31 08:14:58;;;;;;;;;;;;;;;30.81;42.31;155415.56;1697432;83;20203;-61
2022/08/31 08:17:26;;;;;;;;;;;;;;;30.85;42.58;155424.78;1718963;81;20281;-61
2022/08/31 08:20:10;;;;;;;;;;;;;;;30.96;42.89;155452.38;1705800;83;20249;-62
2022/08/31 08:22:39;;;;;;;;;;;;;;;31.14;42.52;155499.69;1706911;83;20155;-61
2022/08/31 08:25:19;;;;;;;;;;;;;;;31.18;42.62;155507.58;1689925;83;22548;-62
2022/08/31 08:27:54;;;;;;;;;;;;;;;31.13;42.66;155497.06;1692512;84;20439;-62
2022/08/31 08:30:23;;;;;;;;;;;;;;;31.10;42.59;155489.19;1700528;83;20645;-61
2022/08/31 08:32:49;;;;;;;;;;;;;;;31.02;42.14;155468.13;1697864;83;20124;-61
2022/08/31 08:35:16;;;;;;;;;;;;;;;30.94;42.08;155448.41;1698123;83;20222;-62
2022/08/31 08:37:46;;;;;;;;;;;;;;;30.92;42.17;155441.88;1695295;83;21764;-62
2022/08/31 08:40:16;;;;;;;;;;;;;;;31.08;42.04;155483.94;1697897;83;20147;-62
2022/08/31 08:42:43;;;;;;;;;;;;;;;31.15;41.29;155502.33;1692365;83;20167;-63
2022/08/31 08:45:10;;;;;;;;;;;;;;;30.98;42.00;155457.63;1693202;84;20218;-61
2022/08/31 08:47:37;;;;;;;;;;;;;;;30.94;43.04;155447.13;1698519;83;20215;-61
2022/08/31 08:50:06;;;;;;;;;;;;;;;31.14;42.48;155499.69;1693145;83;20154;-62
2022/08/31 08:52:40;;;;;;;;;;;;;;;31.31;41.46;155541.81;1697112;83;20146;-62
2022/08/31 08:55:15;;;;;;;;;;;;;;;31.37;41.77;155557.58;1696882;83;20445;-73
2022/08/31 08:57:43;;;;;;;;;;;;;;;31.39;42.07;155562.84;1694919;83;20256;-72
2022/08/31 09:00:13;;;;;;;;;;;;;;;31.44;42.05;155574.67;1692296;83;20175;-72
2022/08/31 09:02:57;;;;;;;;;;;;;;;31.44;42.27;155575.97;1692936;83;21141;-71
2022/08/31 09:05:52;;;;;;;;;;;;;;;31.56;42.23;155606.20;1678360;84;20194;-72
2022/08/31 09:08:49;;;;;;;;;;;;;;;31.77;40.79;155657.56;1697997;83;20196;-63
2022/08/31 09:11:26;;;;;;;;;;;;;;;31.96;40.22;155707.53;1695429;83;20178;-63
2022/08/31 09:14:23;;;;;;;;;;;;;;;32.04;39.98;155727.20;1696789;83;20126;-63
2022/08/31 09:17:00;;;;;;;;;;;;;;;31.97;40.35;155708.81;1695968;83;21261;-62
2022/08/31 09:19:27;;;;;;;;;;;;;;;31.85;40.66;155679.91;1675920;83;20196;-62
2022/08/31 09:21:56;;;;;;;;;;;;;;;31.96;40.25;155706.19;1695759;83;20191;-62
2022/08/31 09:24:26;;;;;;;;;;;;;;;31.99;40.06;155715.41;1695358;83;20274;-62
2022/08/31 09:27:17;;;;;;;;;;;;;;;31.92;39.89;155696.97;1695670;83;20167;-61
2022/08/31 09:29:56;;;;;;;;;;;;;;;31.84;40.16;155675.94;1696185;83;21228;-61
2022/08/31 09:32:26;;;;;;;;;;;;;;;31.58;40.32;155611.45;1702209;83;20183;-62
2022/08/31 09:35:13;;;;;;;;;;;;;;;31.41;40.54;155568.09;1692261;83;20202;-61
2022/08/31 09:37:44;;;;;;;;;;;;;;;31.46;41.24;155578.59;1694014;83;20189;-62
2022/08/31 09:40:14;;;;;;;;;;;;;;;31.65;40.90;155627.27;1695140;82;20214;-62
2022/08/31 09:42:41;;;;;;;;;;;;;;;31.80;40.79;155665.44;1711669;82;21799;-62
2022/08/31 09:45:11;;;;;;;;;;;;;;;31.89;40.37;155687.80;1714258;82;20515;-62
2022/08/31 09:47:47;;;;;;;;;;;;;;;31.83;40.66;155673.31;1718684;82;20241;-61
2022/08/31 09:50:32;;;;;;;;;;;;;;;31.66;41.24;155631.19;1719860;82;21040;-62
2022/08/31 09:56:12;;;;;;;;;;;;;;;31.83;40.94;155673.31;1712157;82;21202;-62
2022/08/31 09:58:37;;;;;;;;;;;;;;;31.97;40.57;155708.81;1713408;82;20374;-62
2022/08/31 10:01:11;;;;;;;;;;;;;;;32.01;40.83;155719.31;1714463;82;20227;-62
2022/08/31 10:03:37;;;;;;;;;;;;;;;32.08;41.09;155736.42;1705392;82;20146;-62
2022/08/31 10:06:05;;;;;;;;;;;;;;;32.04;41.05;155725.92;1716862;82;20498;-62
2022/08/31 10:08:45;;;;;;;;;;;;;;;32.08;40.70;155736.42;1692338;82;21844;-61
2022/08/31 10:11:17;;;;;;;;;;;;;;;32.07;41.04;155733.80;1711191;82;20182;-62
2022/08/31 10:13:57;;;;;;;;;;;;;;;32.12;41.17;155746.94;1710394;82;20185;-62
2022/08/31 10:16:41;;;;;;;;;;;;;;;32.16;40.48;155757.45;1707713;82;20573;-62
2022/08/31 10:19:10;;;;;;;;;;;;;;;32.07;40.41;155733.80;1688032;82;20398;-62
2022/08/31 10:21:42;;;;;;;;;;;;;;;31.93;40.82;155699.59;1710580;82;21217;-62
2022/08/31 10:24:26;;;;;;;;;;;;;;;31.86;40.91;155682.53;1711902;82;20411;-63
2022/08/31 10:26:53;;;;;;;;;;;;;;;31.85;41.08;155679.91;1713635;82;20282;-63
2022/08/31 10:29:39;;;;;;;;;;;;;;;31.98;40.11;155712.78;1717008;82;20176;-63
2022/08/31 10:32:12;;;;;;;;;;;;;;;32.13;39.62;155749.56;1714317;82;20241;-62
2022/08/31 10:37:37;;;;;;;;;;;;;;;32.21;39.92;155770.64;1712305;82;20274;-62
2022/08/31 10:40:17;;;;;;;;;;;;;;;32.18;39.95;155761.41;1680361;82;20487;-62
2022/08/31 10:42:49;;;;;;;;;;;;;;;32.26;39.56;155782.44;1718568;82;20206;-62
2022/08/31 10:45:22;;;;;;;;;;;;;;;32.45;39.18;155831.19;1712923;82;20165;-62
2022/08/31 10:47:50;;;;;;;;;;;;;;;32.60;38.86;155869.31;1711607;82;21125;-62
2022/08/31 10:50:37;;;;;;;;;;;;;;;32.62;38.65;155873.28;1716482;82;20173;-62
2022/08/31 10:53:16;;;;;;;;;;;;;;;32.51;38.57;155846.94;1726770;82;20209;-62
2022/08/31 10:55:54;;;;;;;;;;;;;;;32.42;38.66;155823.30;1658108;84;20198;-62
2022/08/31 10:58:40;;;;;;;;;;;;;;;32.38;38.70;155812.73;1709530;82;20182;-62
2022/08/31 11:01:19;;;;;;;;;;;;;;;32.44;38.45;155829.84;1714449;82;21997;-63
2022/08/31 11:03:55;;;;;;;;;;;;;;;32.44;38.38;155828.55;1716553;82;20201;-61
2022/08/31 11:06:32;;;;;;;;;;;;;;;32.39;38.46;155815.41;1714263;82;20980;-62
2022/08/31 11:09:18;;;;;;;;;;;;;;;32.34;39.12;155802.22;1719264;82;20178;-62
2022/08/31 11:11:56;;;;;;;;;;;;;;;32.50;39.25;155843.03;1715033;82;20203;-62
2022/08/31 11:14:57;;;;;;;;;;;;;;;32.63;38.49;155875.91;1709530;82;21198;-62
2022/08/31 11:17:34;;;;;;;;;;;;;;;32.72;37.90;155899.56;1721788;82;20454;-61
2022/08/31 11:20:19;;;;;;;;;;;;;;;32.62;37.97;155873.28;1713102;82;20221;-61
2022/08/31 11:22:49;;;;;;;;;;;;;;;32.53;38.48;155852.20;1714251;82;20230;-61
2022/08/31 11:25:31;;;;;;;;;;;;;;;32.58;38.99;155865.34;1718683;82;20131;-62
2022/08/31 11:28:06;;;;;;;;;;;;;;;32.75;38.64;155907.45;1713128;82;21239;-62
2022/08/31 11:30:36;;;;;;;;;;;;;;;33.05;38.78;155982.50;1712878;82;20214;-62
2022/08/31 11:33:06;;;;;;;;;;;;;;;33.26;38.38;156036.41;1718765;81;20145;-62
2022/08/31 11:36:08;;;;;;;;;;;;;;;33.21;38.01;156023.27;1714630;82;20201;-61
2022/08/31 11:38:53;;;;;;;;;;;;;;;33.15;39.26;156010.13;1715813;82;20209;-61
2022/08/31 11:41:47;;;;;;;;;;;;;;;33.32;39.78;156052.23;1715379;82;21209;-62
2022/08/31 11:44:35;;;;;;;;;;;;;;;33.53;37.79;156106.22;1713428;82;20620;-63
2022/08/31 11:47:31;;;;;;;;;;;;;;;33.70;37.06;156149.62;1713713;82;20178;-62
2022/08/31 11:50:04;;;;;;;;;;;;;;;33.68;37.27;156144.37;1710132;82;20468;-61
2022/08/31 11:52:39;;;;;;;;;;;;;;;33.50;37.02;156097.03;1710450;82;20178;-62
2022/08/31 11:55:19;;;;;;;;;;;;;;;33.45;37.34;156085.17;1709895;82;21159;-62
2022/08/31 11:58:11;;;;;;;;;;;;;;;33.49;37.74;156095.69;1715503;82;20190;-72
2022/08/31 12:01:00;;;;;;;;;;;;;;;33.52;36.57;156102.28;1692061;82;20203;-72
2022/08/31 12:03:39;;;;;;;;;;;;;;;33.48;37.10;156091.72;1711820;82;20196;-71
2022/08/31 12:06:09;;;;;;;;;;;;;;;33.35;38.11;156058.78;1706926;82;20177;-71
2022/08/31 12:08:50;;;;;;;;;;;;;;;33.36;37.81;156062.75;1715673;82;21238;-71
2022/08/31 12:11:09;;;;;;;;;;;;;;;33.47;37.10;156090.44;1707107;82;20136;-72
2022/08/31 12:13:48;;;;;;;;;;;;;;;33.61;37.28;156125.95;1705304;82;20126;-73
2022/08/31 12:16:21;;;;;;;;;;;;;;;33.67;36.05;156141.73;1706040;81;20180;-72
2022/08/31 12:18:57;;;;;;;;;;;;;;;33.58;35.80;156118.06;1680394;84;20185;-70
2022/08/31 12:24:20;;;;;;;;;;;;;;;33.50;36.73;156098.31;1681926;84;20464;-70
2022/08/31 12:26:59;;;;;;;;;;;;;;;33.66;36.59;156139.11;1676913;84;20184;-73
2022/08/31 12:29:28;;;;;;;;;;;;;;;33.87;36.50;156191.75;1674250;84;20172;-71
2022/08/31 12:32:18;;;;;;;;;;;;;;;33.99;36.70;156223.41;1689469;84;20213;-70
2022/08/31 12:34:58;;;;;;;;;;;;;;;34.02;36.53;156228.67;1679032;84;21107;-71
2022/08/31 12:37:28;;;;;;;;;;;;;;;33.97;35.85;156218.16;1674524;84;20196;-70
2022/08/31 12:40:09;;;;;;;;;;;;;;;34.04;36.15;156235.22;1641697;85;20200;-72
2022/08/31 12:43:00;;;;;;;;;;;;;;;34.12;36.14;156254.97;1639858;85;21285;-72
2022/08/31 12:45:40;;;;;;;;;;;;;;;34.19;36.11;156273.44;1625326;86;21154;-71
2022/08/31 12:48:28;;;;;;;;;;;;;;;34.09;35.80;156248.42;1702260;82;21095;-61
2022/08/31 12:51:19;;;;;;;;;;;;;;;33.90;36.07;156199.64;1692501;83;20179;-62
2022/08/31 12:54:21;;;;;;;;;;;;;;;33.91;36.34;156200.98;1699160;83;20186;-62
2022/08/31 12:56:54;;;;;;;;;;;;;;;34.02;36.17;156228.67;1694552;83;20603;-62
2022/08/31 12:59:39;;;;;;;;;;;;;;;34.03;35.63;156232.59;1658812;85;20213;-62
2022/08/31 13:02:06;;;;;;;;;;;;;;;33.93;36.14;156207.53;1618290;87;21138;-61
2022/08/31 13:04:33;;;;;;;;;;;;;;;33.87;36.25;156191.75;1634833;85;20431;-62
2022/08/31 13:07:11;;;;;;;;;;;;;;;33.90;36.22;156199.64;1638794;87;20172;-61
2022/08/31 13:09:41;;;;;;;;;;;;;;;34.03;36.18;156232.59;1634422;87;20930;-61
2022/08/31 13:12:07;;;;;;;;;;;;;;;34.13;36.14;156258.94;1631227;87;20210;-61
2022/08/31 13:14:42;;;;;;;;;;;;;;;34.10;36.07;156249.72;1630172;87;21305;-62
2022/08/31 13:17:14;;;;;;;;;;;;;;;33.97;36.38;156218.16;1634763;87;20291;-62
2022/08/31 13:19:53;;;;;;;;;;;;;;;33.97;36.52;156216.81;1626504;87;20192;-62